Time;durP1;ratioP1;P1;durP2;ratioP2;P2;SDS_P1;SDS_P2;PMS_P1;PMS_P2;Temp;Humidity;BMP_temperature;BMP_pressure;BME280_temperature;BME280_humidity;BME280_pressure;Samples;Min_cycle;Max_cycle;Signal;HPM_P1;HPM_P2
2021/12/20 00:01:17;;;;;;;5.47;2.30;;;22.70;51.00;;;;;;6177619;28;81011;-64
2021/12/20 00:04:17;;;;;;;5.47;2.40;;;22.60;50.60;;;;;;6167729;28;80294;-64
2021/12/20 00:07:18;;;;;;;5.40;2.30;;;22.60;50.40;;;;;;6167286;28;80664;-64
2021/12/20 00:10:19;;;;;;;6.63;2.42;;;22.60;50.70;;;;;;6161520;28;80441;-65
2021/12/20 00:13:19;;;;;;;5.18;2.55;;;22.60;50.50;;;;;;6161235;28;85038;-64
2021/12/20 00:16:20;;;;;;;5.32;2.42;;;22.60;50.40;;;;;;6160120;28;81121;-64
2021/12/20 00:19:20;;;;;;;5.03;2.83;;;22.60;50.20;;;;;;6159728;28;80486;-64
2021/12/20 00:22:21;;;;;;;4.75;2.40;;;22.60;50.00;;;;;;6157983;28;80612;-64
2021/12/20 00:25:21;;;;;;;9.93;3.15;;;22.60;50.50;;;;;;6165844;28;80209;-64
2021/12/20 00:28:22;;;;;;;7.80;3.03;;;22.60;50.20;;;;;;6173884;28;81122;-64
2021/12/20 00:31:22;;;;;;;5.55;2.67;;;22.60;50.30;;;;;;6175786;28;80336;-64
2021/12/20 00:34:23;;;;;;;5.75;2.40;;;22.60;50.30;;;;;;6175885;28;83821;-64
2021/12/20 00:40:43;;;;;;;3.75;2.30;;;22.50;50.00;;;;;;6160616;28;81543;-65
2021/12/20 00:43:43;;;;;;;4.80;2.70;;;22.50;50.20;;;;;;6163129;28;81799;-65
2021/12/20 00:46:44;;;;;;;6.68;3.00;;;22.50;50.10;;;;;;6162634;28;82381;-65
2021/12/20 00:49:44;;;;;;;4.80;2.35;;;22.50;50.20;;;;;;6174914;28;80363;-65
2021/12/20 00:52:45;;;;;;;3.97;2.20;;;22.50;49.80;;;;;;6180286;28;80892;-65
2021/12/20 00:55:45;;;;;;;7.25;2.90;;;22.50;49.50;;;;;;6165419;28;80430;-65
2021/12/20 00:58:46;;;;;;;4.55;2.83;;;22.50;49.30;;;;;;6167544;28;81648;-65
2021/12/20 01:01:46;;;;;;;5.80;2.83;;;22.50;49.70;;;;;;6176189;28;80772;-64
2021/12/20 01:04:47;;;;;;;6.25;2.95;;;22.50;49.50;;;;;;6163740;28;80070;-64
2021/12/20 01:07:47;;;;;;;4.13;2.55;;;22.60;49.30;;;;;;6172055;28;81108;-65
2021/12/20 01:10:54;;;;;;;5.40;2.53;;;22.50;49.40;;;;;;6176665;28;80409;-65
2021/12/20 01:13:54;;;;;;;6.22;3.30;;;22.50;48.80;;;;;;6174415;28;86394;-65
2021/12/20 01:17:01;;;;;;;5.43;3.38;;;22.50;48.60;;;;;;6164993;28;80392;-64
2021/12/20 01:20:02;;;;;;;5.28;2.83;;;22.50;48.80;;;;;;6165520;27;80322;-65
2021/12/20 01:23:02;;;;;;;5.10;2.67;;;22.50;48.90;;;;;;6161552;28;80380;-64
2021/12/20 01:26:03;;;;;;;6.35;3.40;;;22.50;48.50;;;;;;6160376;28;80521;-65
2021/12/20 01:29:04;;;;;;;5.43;3.30;;;22.50;48.80;;;;;;6162509;28;83059;-64
2021/12/20 01:32:04;;;;;;;5.00;3.17;;;22.50;48.40;;;;;;6167093;27;80451;-64
2021/12/20 01:35:05;;;;;;;5.50;3.05;;;22.50;48.30;;;;;;6168294;27;80773;-66
2021/12/20 01:38:06;;;;;;;8.15;3.60;;;22.50;48.50;;;;;;6210018;28;81503;-65
2021/12/20 01:41:08;;;;;;;5.05;3.00;;;22.50;48.30;;;;;;6154061;28;80646;-64
2021/12/20 01:44:08;;;;;;;5.13;2.97;;;22.50;48.40;;;;;;6176728;28;80569;-64
2021/12/20 01:47:09;;;;;;;5.82;3.10;;;22.50;48.40;;;;;;6160988;28;80437;-64
2021/12/20 01:50:21;;;;;;;7.13;2.95;;;22.50;48.70;;;;;;6168580;28;80603;-64
2021/12/20 01:53:21;;;;;;;5.97;3.33;;;22.50;49.00;;;;;;6179856;27;80403;-64
2021/12/20 01:56:22;;;;;;;5.43;3.33;;;22.50;48.60;;;;;;6159241;28;82530;-64
2021/12/20 01:59:23;;;;;;;4.93;3.03;;;22.40;48.40;;;;;;6174732;27;80973;-64
2021/12/20 02:02:23;;;;;;;6.97;3.50;;;22.50;48.30;;;;;;6192820;28;83173;-64
2021/12/20 02:05:34;;;;;;;4.30;3.10;;;22.40;48.80;;;;;;6176901;27;83378;-63
2021/12/20 02:08:35;;;;;;;5.60;3.50;;;22.40;48.40;;;;;;6178578;27;80479;-64
2021/12/20 02:11:35;;;;;;;6.55;3.40;;;22.40;48.50;;;;;;6169333;28;80762;-64
2021/12/20 02:14:36;;;;;;;6.43;3.60;;;22.40;48.30;;;;;;6178243;27;80554;-66
2021/12/20 02:17:36;;;;;;;5.32;3.15;;;22.40;48.40;;;;;;6162385;28;80303;-65
2021/12/20 02:20:37;;;;;;;6.32;3.10;;;22.40;48.10;;;;;;6179898;27;81141;-64
2021/12/20 02:23:37;;;;;;;5.60;3.10;;;22.40;47.70;;;;;;6179812;27;80245;-65
2021/12/20 02:26:38;;;;;;;6.95;3.55;;;22.40;47.90;;;;;;6174350;27;80587;-65
2021/12/20 02:29:45;;;;;;;6.15;3.20;;;22.40;47.80;;;;;;6160864;28;80560;-64
2021/12/20 02:39:25;;;;;;;4.95;3.10;;;22.30;47.30;;;;;;6161543;28;80345;-65
2021/12/20 02:42:32;;;;;;;6.85;3.70;;;22.40;47.40;;;;;;6168976;27;80305;-65
2021/12/20 02:45:36;;;;;;;7.18;3.42;;;22.30;47.20;;;;;;6176409;27;80765;-65
2021/12/20 02:48:37;;;;;;;5.93;3.50;;;22.30;46.80;;;;;;6160855;28;80408;-64
2021/12/20 02:51:37;;;;;;;6.47;3.60;;;22.40;46.70;;;;;;6166586;28;80281;-64
2021/12/20 02:54:38;;;;;;;8.45;3.92;;;22.40;46.90;;;;;;6170130;28;80755;-64
2021/12/20 02:57:38;;;;;;;6.80;3.45;;;22.40;46.60;;;;;;6177560;27;80776;-65
2021/12/20 03:00:39;;;;;;;7.55;3.47;;;22.40;46.60;;;;;;6164182;28;81302;-64
2021/12/20 03:03:40;;;;;;;4.85;3.35;;;22.40;46.30;;;;;;6161371;28;80427;-64
2021/12/20 03:06:40;;;;;;;6.15;3.35;;;22.40;46.50;;;;;;6171966;27;80623;-64
2021/12/20 03:09:42;;;;;;;7.13;3.65;;;22.40;46.20;;;;;;6173146;27;80583;-64
2021/12/20 03:12:43;;;;;;;6.20;3.20;;;22.40;46.10;;;;;;6163623;28;80917;-64
2021/12/20 03:15:44;;;;;;;6.53;3.47;;;22.40;45.80;;;;;;6173898;27;80477;-64
2021/12/20 03:18:44;;;;;;;6.40;3.42;;;22.40;45.00;;;;;;6162367;28;81575;-64
2021/12/20 03:21:45;;;;;;;10.63;4.32;;;22.40;44.70;;;;;;6175017;27;80505;-63
2021/12/20 03:24:45;;;;;;;9.30;4.32;;;22.40;44.50;;;;;;6173919;27;80512;-63
2021/12/20 03:27:46;;;;;;;5.57;3.50;;;22.50;44.50;;;;;;6168906;28;80331;-63
2021/12/20 03:30:46;;;;;;;6.50;3.58;;;22.60;44.60;;;;;;6175089;27;80419;-63
2021/12/20 03:33:47;;;;;;;7.00;3.63;;;22.60;44.50;;;;;;6159829;28;80771;-63
2021/12/20 03:36:47;;;;;;;5.22;2.97;;;22.70;44.60;;;;;;6175581;27;81060;-63
2021/12/20 03:39:48;;;;;;;6.88;4.10;;;22.70;44.50;;;;;;6161170;28;80416;-63
2021/12/20 03:42:48;;;;;;;8.38;3.95;;;22.80;44.50;;;;;;6172173;27;80770;-63
2021/12/20 03:45:51;;;;;;;8.00;3.67;;;22.80;44.60;;;;;;6176296;27;80755;-63
2021/12/20 03:48:51;;;;;;;7.70;3.65;;;22.80;44.50;;;;;;6164430;28;80217;-63
2021/12/20 03:51:52;;;;;;;5.65;3.38;;;22.80;44.40;;;;;;6176818;27;80456;-62
2021/12/20 03:54:52;;;;;;;6.95;3.15;;;22.90;44.30;;;;;;6176044;28;80992;-62
2021/12/20 03:57:53;;;;;;;5.10;3.42;;;22.90;44.40;;;;;;6171587;27;81541;-63
2021/12/20 04:00:53;;;;;;;5.70;2.90;;;22.90;44.20;;;;;;6158559;28;81808;-63
2021/12/20 04:03:57;;;;;;;5.72;3.13;;;22.90;44.10;;;;;;6166874;28;80450;-64
2021/12/20 04:06:58;;;;;;;6.57;3.42;;;22.90;44.00;;;;;;6162994;28;80345;-63
2021/12/20 04:09:59;;;;;;;4.05;2.97;;;22.90;43.80;;;;;;6162489;28;80513;-63
2021/12/20 04:12:59;;;;;;;6.43;3.70;;;23.00;43.80;;;;;;6160571;28;80635;-63
2021/12/20 04:16:00;;;;;;;4.90;2.97;;;23.00;43.80;;;;;;6182326;27;80647;-63
2021/12/20 04:19:00;;;;;;;6.97;3.22;;;23.00;43.60;;;;;;6162026;28;81391;-63
2021/12/20 04:22:01;;;;;;;4.53;2.78;;;23.00;43.60;;;;;;6180824;27;80526;-64
2021/12/20 04:25:01;;;;;;;4.10;3.00;;;23.00;43.60;;;;;;6168839;28;80453;-63
2021/12/20 04:28:02;;;;;;;4.75;3.33;;;23.00;43.40;;;;;;6163107;28;80349;-63
2021/12/20 04:31:03;;;;;;;5.30;3.00;;;23.00;43.40;;;;;;6162795;28;82601;-63
2021/12/20 04:34:03;;;;;;;6.53;3.30;;;23.00;43.20;;;;;;6161884;28;81070;-65
2021/12/20 04:37:06;;;;;;;6.70;3.72;;;23.00;43.10;;;;;;6182466;27;82563;-65
2021/12/20 04:40:10;;;;;;;5.78;2.72;;;23.10;43.20;;;;;;6152425;28;80515;-65
2021/12/20 04:43:10;;;;;;;8.30;3.38;;;23.10;43.20;;;;;;6179964;27;80496;-65
2021/12/20 04:46:11;;;;;;;6.78;3.38;;;23.10;43.00;;;;;;6163184;28;80613;-63
2021/12/20 04:49:11;;;;;;;7.07;3.60;;;23.20;43.00;;;;;;6180179;27;81175;-63
2021/12/20 04:52:12;;;;;;;6.03;3.13;;;23.10;42.90;;;;;;6174136;28;81862;-63
2021/12/20 04:55:13;;;;;;;5.55;2.85;;;23.20;42.70;;;;;;6167883;28;83713;-63
2021/12/20 04:58:13;;;;;;;5.05;2.92;;;23.20;42.80;;;;;;6170450;28;80732;-62
2021/12/20 05:01:14;;;;;;;4.72;2.67;;;23.20;42.60;;;;;;6167809;28;82640;-64
2021/12/20 05:04:14;;;;;;;4.43;2.65;;;23.20;42.50;;;;;;6163555;28;81160;-64
2021/12/20 05:07:15;;;;;;;4.55;2.75;;;23.20;42.60;;;;;;6166713;28;82486;-64
2021/12/20 05:10:26;;;;;;;8.20;2.67;;;23.20;42.90;;;;;;6175991;27;80586;-64
2021/12/20 05:13:26;;;;;;;5.53;3.05;;;23.20;43.00;;;;;;6169189;28;80501;-64
2021/12/20 05:16:27;;;;;;;5.30;3.42;;;23.20;43.30;;;;;;6169330;28;80557;-62
2021/12/20 05:19:27;;;;;;;4.55;2.53;;;23.30;43.00;;;;;;6161999;28;80634;-63
2021/12/20 05:22:28;;;;;;;6.72;2.90;;;23.30;42.80;;;;;;6161202;28;81416;-63
2021/12/20 05:25:28;;;;;;;5.65;3.50;;;23.30;43.00;;;;;;6156431;28;81716;-63
2021/12/20 05:28:29;;;;;;;4.57;2.75;;;23.30;43.00;;;;;;6153657;28;80481;-63
2021/12/20 05:31:29;;;;;;;4.93;2.83;;;23.30;42.90;;;;;;6154066;28;80625;-63
2021/12/20 05:34:30;;;;;;;7.50;2.85;;;23.40;42.70;;;;;;6152423;28;80365;-66
2021/12/20 05:37:30;;;;;;;5.13;2.70;;;23.30;42.60;;;;;;6152583;28;80698;-63
2021/12/20 05:40:31;;;;;;;6.47;2.45;;;23.40;42.70;;;;;;6160855;28;83669;-62
2021/12/20 05:43:31;;;;;;;5.82;2.40;;;23.40;42.70;;;;;;6162642;28;80532;-63
2021/12/20 05:46:32;;;;;;;5.50;2.70;;;23.40;43.20;;;;;;6161246;28;80518;-64
2021/12/20 05:49:32;;;;;;;9.25;3.33;;;23.40;43.20;;;;;;6161447;28;80377;-63
2021/12/20 05:52:33;;;;;;;6.03;2.95;;;23.40;43.10;;;;;;6165759;28;79950;-63
2021/12/20 05:55:33;;;;;;;144.70;69.50;;;23.40;43.40;;;;;;6169009;28;81968;-66
2021/12/20 05:58:34;;;;;;;222.43;104.80;;;23.50;44.30;;;;;;6157398;28;84269;-64
2021/12/20 06:01:34;;;;;;;145.35;71.43;;;23.50;44.60;;;;;;6154901;28;85572;-64
2021/12/20 06:04:35;;;;;;;163.90;82.30;;;23.50;44.70;;;;;;6157697;28;85415;-64
2021/12/20 06:07:39;;;;;;;203.27;104.78;;;23.50;45.20;;;;;;6157420;28;83074;-64
2021/12/20 06:10:40;;;;;;;256.40;128.43;;;23.50;45.40;;;;;;6154913;28;85872;-64
2021/12/20 06:13:40;;;;;;;243.55;119.28;;;23.50;45.10;;;;;;6154896;28;86656;-66
2021/12/20 06:16:41;;;;;;;167.38;84.35;;;23.50;45.20;;;;;;6153390;28;86893;-66
2021/12/20 06:19:41;;;;;;;135.57;65.03;;;23.40;46.30;;;;;;6157797;28;85298;-68
2021/12/20 06:22:42;;;;;;;102.80;51.10;;;23.40;47.30;;;;;;6157563;28;83167;-68
2021/12/20 06:25:42;;;;;;;87.57;41.88;;;23.30;48.10;;;;;;6157127;28;84480;-65
2021/12/20 06:28:43;;;;;;;68.53;33.63;;;23.20;48.50;;;;;;6157047;28;83696;-65
2021/12/20 06:31:43;;;;;;;57.90;29.45;;;23.20;49.20;;;;;;6154410;28;83432;-65
2021/12/20 06:34:44;;;;;;;56.50;26.65;;;23.20;49.70;;;;;;6155907;28;83084;-64
2021/12/20 06:37:48;;;;;;;44.42;22.75;;;23.20;50.50;;;;;;6157308;28;83804;-63
2021/12/20 06:40:48;;;;;;;40.58;19.50;;;23.10;50.60;;;;;;6156003;28;83432;-63
2021/12/20 06:43:49;;;;;;;41.10;20.98;;;23.10;51.70;;;;;;6157037;28;83416;-65
2021/12/20 06:46:49;;;;;;;43.28;19.77;;;23.10;51.60;;;;;;6157103;28;83422;-63
2021/12/20 06:49:50;;;;;;;34.90;16.70;;;23.10;50.40;;;;;;6157107;28;83251;-63
2021/12/20 06:52:50;;;;;;;29.55;14.27;;;23.10;49.70;;;;;;6157008;28;83152;-65
2021/12/20 06:55:51;;;;;;;21.45;11.85;;;23.10;47.20;;;;;;6151987;28;83524;-65
2021/12/20 06:58:54;;;;;;;20.52;10.23;;;23.10;46.20;;;;;;6155029;28;82754;-64
2021/12/20 07:01:54;;;;;;;18.35;9.77;;;23.00;45.70;;;;;;6153724;28;82958;-65
2021/12/20 07:04:55;;;;;;;18.15;8.55;;;23.00;44.70;;;;;;6151131;28;83128;-64
2021/12/20 07:07:55;;;;;;;12.00;6.55;;;22.90;44.80;;;;;;6160966;28;80533;-65
2021/12/20 07:10:56;;;;;;;14.10;6.15;;;22.90;45.00;;;;;;6164339;28;80437;-65
2021/12/20 07:13:56;;;;;;;11.48;6.10;;;22.90;45.10;;;;;;6159944;28;81511;-63
2021/12/20 07:16:57;;;;;;;11.15;5.78;;;22.90;45.40;;;;;;6159274;28;80377;-66
2021/12/20 07:20:00;;;;;;;10.50;5.47;;;22.90;45.40;;;;;;6158561;28;81420;-67
2021/12/20 07:23:01;;;;;;;11.73;5.70;;;22.90;45.40;;;;;;6157191;28;82054;-70
2021/12/20 07:26:02;;;;;;;8.40;4.55;;;22.90;45.90;;;;;;6151650;28;80352;-66
2021/12/20 07:29:03;;;;;;;9.20;4.50;;;22.90;46.60;;;;;;6152871;28;81394;-68
2021/12/20 07:32:04;;;;;;;12.63;4.90;;;22.90;46.30;;;;;;6169293;28;80500;-69
2021/12/20 07:35:04;;;;;;;10.20;4.53;;;22.90;46.30;;;;;;6158961;28;81302;-68
2021/12/20 07:38:06;;;;;;;14.55;3.63;;;22.90;46.40;;;;;;6159479;28;81888;-68
2021/12/20 07:41:07;;;;;;;5.72;3.42;;;22.90;46.50;;;;;;6157780;28;80377;-68
2021/12/20 07:44:07;;;;;;;8.45;4.22;;;22.90;45.90;;;;;;6159218;28;80072;-66
2021/12/20 07:47:08;;;;;;;10.02;4.45;;;22.90;46.20;;;;;;6161785;28;80610;-67
2021/12/20 07:50:08;;;;;;;13.73;3.90;;;22.90;46.30;;;;;;6157094;28;80618;-68
2021/12/20 07:53:09;;;;;;;11.00;4.65;;;22.80;45.90;;;;;;6158847;28;80289;-67
2021/12/20 07:56:09;;;;;;;8.93;4.13;;;22.80;45.90;;;;;;6158449;28;87286;-70
2021/12/20 07:59:10;;;;;;;7.70;3.53;;;22.80;45.70;;;;;;6158934;28;80363;-66
2021/12/20 08:02:11;;;;;;;7.82;3.60;;;22.60;46.30;;;;;;6155983;28;81898;-68
2021/12/20 08:05:13;;;;;;;4.88;2.90;;;22.50;47.50;;;;;;6163705;28;81443;-67
2021/12/20 08:08:14;;;;;;;3.53;2.55;;;22.40;48.40;;;;;;6159298;28;80463;-67
2021/12/20 08:11:14;;;;;;;4.68;2.22;;;22.40;49.10;;;;;;6163235;28;81631;-68
2021/12/20 08:14:15;;;;;;;6.53;2.47;;;22.30;49.40;;;;;;6160235;28;80915;-68
2021/12/20 08:17:15;;;;;;;3.45;2.08;;;22.40;49.80;;;;;;6156844;28;82173;-71
2021/12/20 08:20:16;;;;;;;3.97;2.22;;;22.40;49.70;;;;;;6161384;28;80785;-67
2021/12/20 08:23:17;;;;;;;4.95;2.65;;;22.40;50.50;;;;;;6161218;28;81294;-67
2021/12/20 08:26:17;;;;;;;5.47;2.25;;;22.40;50.40;;;;;;6161862;28;81678;-67
2021/12/20 08:29:18;;;;;;;5.22;2.15;;;22.40;50.10;;;;;;6160473;28;82030;-66
2021/12/20 08:32:18;;;;;;;5.30;2.38;;;22.40;50.30;;;;;;6164168;28;80362;-66
2021/12/20 08:35:19;;;;;;;3.90;2.10;;;22.40;50.40;;;;;;6156297;28;81784;-67
2021/12/20 08:38:19;;;;;;;3.92;2.55;;;22.50;50.50;;;;;;6148479;28;80576;-67
2021/12/20 08:41:20;;;;;;;3.25;1.83;;;22.50;50.60;;;;;;6152355;28;80633;-68
2021/12/20 08:44:20;;;;;;;2.80;2.03;;;22.50;50.70;;;;;;6154213;28;81233;-67
2021/12/20 08:47:21;;;;;;;3.00;1.83;;;22.50;50.50;;;;;;6150898;28;80481;-67
2021/12/20 08:50:21;;;;;;;3.17;1.90;;;22.50;50.70;;;;;;6145921;28;81548;-67
2021/12/20 08:53:22;;;;;;;5.60;2.00;;;22.50;50.80;;;;;;6149656;28;80593;-67
2021/12/20 08:56:22;;;;;;;2.35;1.63;;;22.50;50.90;;;;;;6162278;28;80297;-68
2021/12/20 08:59:23;;;;;;;2.58;1.60;;;22.50;50.80;;;;;;6159978;28;81455;-67
2021/12/20 09:02:23;;;;;;;4.85;2.20;;;22.50;50.80;;;;;;6158485;28;81940;-70
2021/12/20 09:05:24;;;;;;;10.15;2.97;;;22.50;50.30;;;;;;6161659;28;82526;-69
2021/12/20 09:08:24;;;;;;;8.48;2.50;;;22.50;50.00;;;;;;6162027;28;80915;-71
2021/12/20 09:11:26;;;;;;;6.55;2.83;;;22.60;49.80;;;;;;6162237;28;82113;-71
2021/12/20 09:14:28;;;;;;;7.57;2.63;;;22.60;49.60;;;;;;6159529;28;81080;-70
2021/12/20 09:17:28;;;;;;;4.28;2.17;;;22.60;48.90;;;;;;6160548;28;81308;-74
2021/12/20 09:20:29;;;;;;;6.22;2.25;;;22.70;48.90;;;;;;6161083;28;80661;-70
2021/12/20 09:23:31;;;;;;;4.45;2.60;;;22.70;48.80;;;;;;6158285;28;87601;-71
2021/12/20 09:26:32;;;;;;;4.68;2.67;;;22.70;48.50;;;;;;6160922;28;80664;-71
2021/12/20 09:29:33;;;;;;;5.47;2.80;;;22.70;48.40;;;;;;6159093;28;81102;-70
2021/12/20 09:32:34;;;;;;;5.55;2.78;;;22.80;48.40;;;;;;6161997;28;81545;-70
2021/12/20 09:35:34;;;;;;;3.95;2.40;;;22.80;48.30;;;;;;6157806;28;87244;-71
2021/12/20 09:38:35;;;;;;;2.88;1.85;;;22.90;48.30;;;;;;6157840;28;80257;-70
2021/12/20 09:44:39;;;;;;;4.10;2.35;;;22.90;47.90;;;;;;6160093;28;82029;-70
2021/12/20 09:47:39;;;;;;;3.15;2.17;;;22.90;47.90;;;;;;6159690;28;81759;-71
2021/12/20 09:50:40;;;;;;;5.10;2.08;;;23.00;48.00;;;;;;6162339;28;80990;-72
2021/12/20 09:53:41;;;;;;;6.38;2.03;;;23.00;47.70;;;;;;6160737;28;80687;-72
2021/12/20 09:56:42;;;;;;;4.53;2.10;;;23.10;47.60;;;;;;6159940;28;80601;-72
2021/12/20 09:59:42;;;;;;;4.85;2.75;;;23.10;47.80;;;;;;6158374;28;80456;-71
2021/12/20 10:02:43;;;;;;;3.95;2.35;;;23.10;47.80;;;;;;6156175;28;80537;-70
2021/12/20 10:05:44;;;;;;;4.97;2.10;;;23.10;47.50;;;;;;6160257;28;80722;-71
2021/12/20 10:08:52;;;;;;;4.22;2.15;;;23.10;47.10;;;;;;6161377;28;80543;-69
2021/12/20 10:11:52;;;;;;;3.22;2.10;;;23.10;47.20;;;;;;6158548;28;81566;-70
2021/12/20 10:14:53;;;;;;;3.63;2.10;;;23.10;47.20;;;;;;6162420;28;80712;-70
2021/12/20 10:17:54;;;;;;;4.50;2.22;;;23.10;47.00;;;;;;6163531;28;80796;-70
2021/12/20 10:20:55;;;;;;;5.22;2.15;;;23.10;47.20;;;;;;6159634;28;82193;-67
2021/12/20 10:23:55;;;;;;;4.32;2.17;;;23.10;47.10;;;;;;6161214;28;80203;-68
2021/12/20 10:26:56;;;;;;;2.30;1.88;;;23.10;46.70;;;;;;6160603;28;80354;-67
2021/12/20 10:29:57;;;;;;;4.53;2.53;;;23.10;46.70;;;;;;6153890;28;81924;-67
2021/12/20 10:32:57;;;;;;;6.82;2.08;;;23.10;46.60;;;;;;6155717;28;80582;-66
2021/12/20 10:35:59;;;;;;;2.65;1.90;;;23.10;46.50;;;;;;6168971;28;80224;-66
2021/12/20 10:38:59;;;;;;;4.57;2.17;;;23.10;46.30;;;;;;6161554;28;80673;-67
2021/12/20 10:42:04;;;;;;;3.17;2.03;;;23.10;46.20;;;;;;6160700;28;81742;-71
2021/12/20 10:45:05;;;;;;;2.10;1.90;;;23.10;46.20;;;;;;6160327;28;86196;-68
2021/12/20 10:48:05;;;;;;;3.25;1.90;;;23.10;46.40;;;;;;6160519;28;80913;-69
2021/12/20 10:51:06;;;;;;;3.42;2.40;;;23.10;46.10;;;;;;6160761;28;81286;-67
2021/12/20 10:54:10;;;;;;;4.55;2.80;;;23.10;46.60;;;;;;6162718;28;80764;-69
2021/12/20 10:57:11;;;;;;;5.93;2.80;;;23.20;47.90;;;;;;6164513;28;80629;-70
2021/12/20 11:00:11;;;;;;;8.55;3.00;;;23.20;49.10;;;;;;6161851;27;80842;-71
2021/12/20 11:03:25;;;;;;;8.25;2.78;;;23.20;49.40;;;;;;6191440;28;80411;-75
2021/12/20 11:06:37;;;;;;;14.40;4.10;;;23.20;49.00;;;;;;6159463;28;81710;-69
2021/12/20 11:09:38;;;;;;;10.02;3.60;;;23.20;50.40;;;;;;6160016;28;80541;-70
2021/12/20 11:12:38;;;;;;;9.18;4.18;;;23.30;51.50;;;;;;6160145;28;80625;-71
2021/12/20 11:15:39;;;;;;;9.43;4.97;;;23.30;51.30;;;;;;6159391;28;80232;-70
2021/12/20 11:18:39;;;;;;;11.50;4.38;;;23.30;51.10;;;;;;6160566;28;81521;-70
2021/12/20 11:21:40;;;;;;;9.52;4.70;;;23.30;50.10;;;;;;6157745;28;81482;-67
2021/12/20 11:24:41;;;;;;;15.50;6.40;;;23.30;50.90;;;;;;6169264;28;80925;-71
2021/12/20 11:27:42;;;;;;;14.38;5.28;;;23.40;52.10;;;;;;6160857;28;83356;-74
2021/12/20 11:30:43;;;;;;;14.63;5.57;;;23.40;51.50;;;;;;6159027;28;80902;-73
2021/12/20 11:33:43;;;;;;;17.45;6.68;;;23.40;51.30;;;;;;6161958;28;80560;-71
2021/12/20 11:36:44;;;;;;;15.10;6.57;;;23.40;51.30;;;;;;6158121;28;81774;-67
2021/12/20 11:39:44;;;;;;;12.55;5.07;;;23.40;50.80;;;;;;6160169;28;87601;-69
2021/12/20 11:42:45;;;;;;;8.88;4.68;;;23.40;50.20;;;;;;6158365;28;80858;-69
2021/12/20 11:45:46;;;;;;;10.57;4.88;;;23.40;50.60;;;;;;6159652;28;81318;-69
2021/12/20 11:48:46;;;;;;;9.90;4.30;;;23.40;50.90;;;;;;6158301;28;80543;-68
2021/12/20 11:51:47;;;;;;;11.25;4.80;;;23.40;50.40;;;;;;6159510;28;80226;-67
2021/12/20 11:54:47;;;;;;;7.88;4.07;;;23.40;49.90;;;;;;6159094;28;80573;-68
2021/12/20 11:57:48;;;;;;;10.35;4.15;;;23.40;49.40;;;;;;6160381;28;81433;-66
2021/12/20 12:00:48;;;;;;;8.85;4.00;;;23.40;49.60;;;;;;6158438;28;81116;-68
2021/12/20 12:03:49;;;;;;;6.32;3.83;;;23.40;49.20;;;;;;6152361;28;80732;-69
2021/12/20 12:06:49;;;;;;;6.43;3.33;;;23.40;49.00;;;;;;6158396;28;80559;-69
2021/12/20 12:09:50;;;;;;;6.05;3.03;;;23.40;48.80;;;;;;6154420;28;81025;-67
2021/12/20 12:12:50;;;;;;;8.35;2.85;;;23.40;48.70;;;;;;6158408;28;80470;-70
2021/12/20 12:15:52;;;;;;;7.75;3.00;;;23.40;48.50;;;;;;6151509;28;82203;-68
2021/12/20 12:18:52;;;;;;;6.25;3.30;;;23.40;48.00;;;;;;6157233;28;80370;-68
2021/12/20 12:21:53;;;;;;;7.28;2.33;;;23.40;47.70;;;;;;6189685;28;83628;-67
2021/12/20 12:24:53;;;;;;;5.07;2.42;;;23.40;47.90;;;;;;6159969;28;80860;-67
2021/12/20 12:27:54;;;;;;;6.18;2.70;;;23.40;47.60;;;;;;6158572;28;80479;-68
2021/12/20 12:30:55;;;;;;;4.28;2.35;;;23.40;47.50;;;;;;6157655;28;83416;-68
2021/12/20 12:33:55;;;;;;;3.50;2.20;;;23.40;47.20;;;;;;6161008;28;81572;-67
2021/12/20 12:36:56;;;;;;;3.80;1.90;;;23.40;47.50;;;;;;6164343;28;80617;-67
2021/12/20 12:39:56;;;;;;;3.47;2.20;;;23.40;47.30;;;;;;6163032;28;82480;-68
2021/12/20 12:42:58;;;;;;;3.22;2.10;;;23.40;47.10;;;;;;6164246;28;80440;-67
2021/12/20 12:46:00;;;;;;;2.83;2.00;;;23.40;47.10;;;;;;6165636;28;80395;-67
2021/12/20 12:49:00;;;;;;;3.42;1.83;;;23.40;47.20;;;;;;6163592;28;80592;-68
2021/12/20 12:52:01;;;;;;;4.07;1.95;;;23.40;47.80;;;;;;6163445;28;81719;-70
2021/12/20 12:55:02;;;;;;;3.40;2.03;;;23.40;46.80;;;;;;6164849;28;80973;-68
2021/12/20 12:58:03;;;;;;;3.50;1.73;;;23.40;46.80;;;;;;6161886;28;80591;-69
2021/12/20 13:01:03;;;;;;;3.35;1.80;;;23.40;46.80;;;;;;6160987;28;83084;-71
2021/12/20 13:04:04;;;;;;;3.65;2.33;;;23.40;46.70;;;;;;6165876;28;80649;-71
2021/12/20 13:07:04;;;;;;;2.90;1.80;;;23.30;46.50;;;;;;6164465;28;80296;-66
2021/12/20 13:10:05;;;;;;;2.35;1.73;;;23.30;46.40;;;;;;6153627;28;80460;-68
2021/12/20 13:13:23;;;;;;;3.15;2.00;;;23.30;46.60;;;;;;6181717;28;81619;-66
2021/12/20 13:16:26;;;;;;;3.67;1.98;;;23.30;46.40;;;;;;6157666;28;80136;-67
2021/12/20 13:19:28;;;;;;;3.95;2.60;;;23.30;46.40;;;;;;6160559;28;80318;-65
2021/12/20 13:22:28;;;;;;;2.58;1.83;;;23.40;46.30;;;;;;6161324;28;81024;-66
2021/12/20 13:25:29;;;;;;;2.75;1.95;;;23.40;46.40;;;;;;6162147;28;80467;-67
2021/12/20 13:28:30;;;;;;;3.58;2.15;;;23.30;46.00;;;;;;6161151;28;80474;-68
2021/12/20 13:31:32;;;;;;;3.00;1.90;;;23.40;46.10;;;;;;6162784;28;80452;-73
2021/12/20 13:34:32;;;;;;;4.05;1.95;;;23.30;46.10;;;;;;6162985;28;80262;-73
2021/12/20 13:37:35;;;;;;;3.67;1.90;;;23.40;46.70;;;;;;6161360;28;80249;-71
2021/12/20 13:40:36;;;;;;;2.70;1.95;;;23.40;46.50;;;;;;6163070;28;80442;-69
2021/12/20 13:43:37;;;;;;;4.80;2.25;;;23.40;46.30;;;;;;6163587;28;80848;-69
2021/12/20 13:46:42;;;;;;;3.75;1.95;;;23.40;46.60;;;;;;6161991;28;80502;-70
2021/12/20 13:49:43;;;;;;;3.88;2.15;;;23.30;46.50;;;;;;6166981;28;81448;-69
2021/12/20 13:52:44;;;;;;;4.60;2.60;;;23.30;46.10;;;;;;6160688;28;80848;-70
2021/12/20 13:55:44;;;;;;;5.00;2.45;;;23.30;45.90;;;;;;6161742;28;80549;-70
2021/12/20 13:58:45;;;;;;;4.03;2.25;;;23.30;45.90;;;;;;6165395;28;80292;-70
2021/12/20 14:01:46;;;;;;;2.88;2.05;;;23.30;45.90;;;;;;6160071;28;81409;-70
2021/12/20 14:04:46;;;;;;;3.38;1.80;;;23.30;45.80;;;;;;6159828;28;81219;-70
2021/12/20 14:07:48;;;;;;;3.15;1.70;;;23.30;45.70;;;;;;6158562;28;80934;-70
2021/12/20 14:10:49;;;;;;;2.70;1.98;;;23.30;45.70;;;;;;6162496;28;81579;-71
2021/12/20 14:13:49;;;;;;;3.40;1.95;;;23.30;45.40;;;;;;6156324;28;80891;-72
2021/12/20 14:16:50;;;;;;;3.15;1.92;;;23.30;45.50;;;;;;6159383;28;81646;-69
2021/12/20 14:19:50;;;;;;;4.82;2.28;;;23.30;45.40;;;;;;6159046;28;80460;-70
2021/12/20 14:22:51;;;;;;;4.28;2.55;;;23.30;45.30;;;;;;6160320;28;81458;-70
2021/12/20 14:25:51;;;;;;;3.20;2.38;;;23.30;45.20;;;;;;6159724;28;80210;-70
2021/12/20 14:28:52;;;;;;;3.00;2.00;;;23.30;45.20;;;;;;6161624;28;83624;-68
2021/12/20 14:31:59;;;;;;;2.35;1.90;;;23.30;45.00;;;;;;6156417;28;81947;-68
2021/12/20 14:34:59;;;;;;;4.85;2.40;;;23.30;45.00;;;;;;6158748;28;80570;-70
2021/12/20 14:38:00;;;;;;;3.63;2.15;;;23.30;44.90;;;;;;6156325;28;80895;-67
2021/12/20 14:41:00;;;;;;;2.70;1.90;;;23.30;44.80;;;;;;6159174;28;81388;-68
2021/12/20 14:44:03;;;;;;;3.83;2.10;;;23.30;44.60;;;;;;6157919;28;80773;-72
2021/12/20 14:47:16;;;;;;;2.35;1.70;;;23.30;44.40;;;;;;6157900;28;81775;-71
2021/12/20 14:50:25;;;;;;;2.45;1.92;;;23.20;44.50;;;;;;6160169;28;81288;-70
2021/12/20 14:53:26;;;;;;;3.10;1.98;;;23.30;44.50;;;;;;6161065;28;80944;-70
2021/12/20 14:56:26;;;;;;;2.83;2.00;;;23.30;44.60;;;;;;6161029;28;80878;-72
2021/12/20 14:59:27;;;;;;;3.75;2.10;;;23.30;44.30;;;;;;6147738;28;80479;-71
2021/12/20 15:02:32;;;;;;;4.15;2.30;;;23.30;44.50;;;;;;6157788;28;80589;-70
2021/12/20 15:05:33;;;;;;;4.37;2.40;;;23.30;44.40;;;;;;6159550;28;82709;-70
2021/12/20 15:08:33;;;;;;;2.88;2.05;;;23.30;44.20;;;;;;6158068;28;81593;-70
2021/12/20 15:11:34;;;;;;;3.42;2.05;;;23.30;44.20;;;;;;6159944;28;80460;-70
2021/12/20 15:14:34;;;;;;;4.80;2.10;;;23.30;44.00;;;;;;6162572;28;80479;-71
2021/12/20 15:17:35;;;;;;;3.63;2.30;;;23.30;44.00;;;;;;6160623;28;80363;-70
2021/12/20 15:20:36;;;;;;;2.70;2.15;;;23.30;43.80;;;;;;6159944;28;81548;-70
2021/12/20 15:23:36;;;;;;;2.80;1.98;;;23.30;43.80;;;;;;6160186;28;80644;-72
2021/12/20 15:26:37;;;;;;;2.55;2.20;;;23.30;43.60;;;;;;6156637;28;80748;-73
2021/12/20 15:29:37;;;;;;;3.33;2.42;;;23.30;43.60;;;;;;6160719;28;80831;-71
2021/12/20 15:32:38;;;;;;;3.25;2.30;;;23.30;43.50;;;;;;6156395;28;80456;-70
2021/12/20 15:35:39;;;;;;;3.45;2.25;;;23.30;43.10;;;;;;6158909;28;80434;-73
2021/12/20 15:38:39;;;;;;;5.10;2.33;;;23.30;43.10;;;;;;6159635;28;81257;-72
2021/12/20 15:41:40;;;;;;;3.08;2.20;;;23.30;42.70;;;;;;6159428;28;81184;-70
2021/12/20 15:44:40;;;;;;;4.40;2.58;;;23.30;42.50;;;;;;6159686;28;81710;-68
2021/12/20 15:47:41;;;;;;;5.63;2.72;;;23.30;42.40;;;;;;6158851;28;80646;-68
2021/12/20 15:50:46;;;;;;;4.10;3.00;;;23.30;42.60;;;;;;6158063;28;81584;-68